Time;durP1;ratioP1;P1;durP2;ratioP2;P2;SDS_P1;SDS_P2;PMS_P1;PMS_P2;Temp;Humidity;BMP_temperature;BMP_pressure;BME280_temperature;BME280_humidity;BME280_pressure;Samples;Min_cycle;Max_cycle;Signal;HPM_P1;HPM_P2
2021/05/17 00:00:28;;;;;;;27.02;14.40;;;;;;;;;;5031449;28;20108;-65
2021/05/17 00:02:56;;;;;;;27.33;13.30;;;;;;;;;;5031841;28;20037;-64
2021/05/17 00:05:22;;;;;;;28.17;13.70;;;;;;;;;;5030345;28;20108;-65
2021/05/17 00:07:48;;;;;;;25.77;12.93;;;;;;;;;;5031716;28;20109;-63
2021/05/17 00:10:14;;;;;;;28.02;13.52;;;;;;;;;;5030445;28;20167;-64
2021/05/17 00:12:41;;;;;;;28.10;13.70;;;;;;;;;;5030688;28;20026;-65
2021/05/17 00:15:09;;;;;;;28.67;13.93;;;;;;;;;;5031803;28;20021;-65
2021/05/17 00:17:35;;;;;;;28.40;14.68;;;;;;;;;;5031974;28;20493;-64
2021/05/17 00:20:03;;;;;;;26.88;14.23;;;;;;;;;;5031294;28;20032;-65
2021/05/17 00:22:29;;;;;;;26.48;14.40;;;;;;;;;;5031803;28;20033;-65
2021/05/17 00:24:55;;;;;;;26.08;14.55;;;;;;;;;;5030235;28;20305;-64
2021/05/17 00:27:21;;;;;;;30.25;14.98;;;;;;;;;;5031099;28;20209;-64
2021/05/17 00:29:47;;;;;;;32.05;16.63;;;;;;;;;;5031541;28;20100;-63
2021/05/17 00:32:13;;;;;;;30.23;16.02;;;;;;;;;;5031136;28;20453;-64
2021/05/17 00:34:40;;;;;;;28.15;14.70;;;;;;;;;;5031055;28;20017;-64
2021/05/17 00:37:06;;;;;;;30.65;15.73;;;;;;;;;;5032090;28;20052;-63
2021/05/17 00:39:32;;;;;;;29.10;15.32;;;;;;;;;;5031348;28;20037;-64
2021/05/17 00:41:58;;;;;;;27.63;15.07;;;;;;;;;;5032094;28;20489;-64
2021/05/17 00:44:25;;;;;;;32.08;16.38;;;;;;;;;;5032063;28;20040;-63
2021/05/17 00:46:52;;;;;;;32.13;17.13;;;;;;;;;;5030765;28;20030;-65
2021/05/17 00:49:18;;;;;;;29.48;16.63;;;;;;;;;;5031198;28;20028;-62
2021/05/17 00:51:44;;;;;;;28.25;16.30;;;;;;;;;;5031750;28;20026;-63
2021/05/17 00:54:10;;;;;;;29.05;15.95;;;;;;;;;;5031966;28;20091;-65
2021/05/17 00:56:37;;;;;;;31.00;16.70;;;;;;;;;;5030801;28;20029;-64
2021/05/17 00:59:03;;;;;;;30.73;16.38;;;;;;;;;;5029980;28;20034;-62
2021/05/17 01:01:29;;;;;;;32.15;16.88;;;;;;;;;;5030551;28;20060;-65
2021/05/17 01:03:55;;;;;;;29.50;17.40;;;;;;;;;;5030628;28;20401;-65
2021/05/17 01:06:22;;;;;;;29.85;16.27;;;;;;;;;;5031753;28;20032;-65
2021/05/17 01:09:03;;;;;;;29.40;16.35;;;;;;;;;;5031321;28;20057;-62
2021/05/17 01:11:29;;;;;;;29.90;16.08;;;;;;;;;;5033157;28;20104;-64
2021/05/17 01:13:56;;;;;;;28.98;15.43;;;;;;;;;;5035819;28;20092;-64
2021/05/17 01:16:23;;;;;;;27.30;14.90;;;;;;;;;;5034822;28;20037;-65
2021/05/17 01:18:51;;;;;;;26.38;14.95;;;;;;;;;;5035424;28;20029;-64
2021/05/17 01:21:17;;;;;;;29.38;16.42;;;;;;;;;;5036054;28;20494;-65
2021/05/17 01:23:47;;;;;;;25.90;13.15;;;;;;;;;;5034562;28;20021;-65
2021/05/17 01:26:13;;;;;;;26.00;15.13;;;;;;;;;;5037161;28;20042;-64
2021/05/17 01:28:41;;;;;;;25.33;13.77;;;;;;;;;;5033827;28;20053;-62
2021/05/17 01:31:09;;;;;;;25.27;14.07;;;;;;;;;;5018013;28;20562;-65
2021/05/17 01:33:36;;;;;;;24.00;12.38;;;;;;;;;;5035688;28;20033;-65
2021/05/17 01:36:03;;;;;;;25.30;13.30;;;;;;;;;;5035500;28;20492;-65
2021/05/17 01:38:29;;;;;;;23.30;12.13;;;;;;;;;;5035485;28;20029;-63
2021/05/17 01:40:57;;;;;;;27.23;12.98;;;;;;;;;;5034897;28;20432;-65
2021/05/17 01:43:24;;;;;;;24.77;13.47;;;;;;;;;;5034456;28;20017;-62
2021/05/17 01:45:50;;;;;;;23.35;12.65;;;;;;;;;;5034111;28;20351;-62
2021/05/17 01:48:24;;;;;;;23.92;13.50;;;;;;;;;;5035354;28;20056;-64
2021/05/17 01:50:51;;;;;;;26.92;12.93;;;;;;;;;;5034598;28;20017;-64
2021/05/17 01:53:17;;;;;;;24.73;13.00;;;;;;;;;;5033961;28;20026;-64
2021/05/17 01:55:44;;;;;;;25.58;13.10;;;;;;;;;;5035192;28;20089;-64
2021/05/17 01:58:10;;;;;;;25.27;13.18;;;;;;;;;;5035109;28;20508;-64
2021/05/17 02:00:36;;;;;;;26.42;13.20;;;;;;;;;;5033396;28;20482;-62
2021/05/17 02:03:03;;;;;;;24.00;11.50;;;;;;;;;;5034094;28;20041;-64
2021/05/17 02:05:29;;;;;;;23.23;12.07;;;;;;;;;;5034919;28;20027;-63
2021/05/17 02:07:56;;;;;;;21.95;11.63;;;;;;;;;;5034990;28;20028;-63
2021/05/17 02:10:22;;;;;;;23.27;12.32;;;;;;;;;;5033022;28;20030;-64
2021/05/17 02:12:49;;;;;;;24.10;12.50;;;;;;;;;;5033593;28;20021;-64
2021/05/17 02:15:17;;;;;;;24.58;12.95;;;;;;;;;;5034727;28;20029;-62
2021/05/17 02:17:44;;;;;;;23.73;11.52;;;;;;;;;;5034752;28;20026;-64
2021/05/17 02:20:14;;;;;;;27.02;12.50;;;;;;;;;;5032552;28;20490;-63
2021/05/17 02:22:43;;;;;;;22.42;11.27;;;;;;;;;;5033183;28;20489;-65
2021/05/17 02:25:09;;;;;;;24.55;13.00;;;;;;;;;;5033089;28;20045;-64
2021/05/17 02:27:35;;;;;;;23.40;11.73;;;;;;;;;;5033325;28;20026;-64
2021/05/17 02:30:01;;;;;;;24.95;12.57;;;;;;;;;;5032859;28;20025;-64
2021/05/17 02:32:28;;;;;;;25.35;13.40;;;;;;;;;;5034564;28;20029;-64
2021/05/17 02:34:54;;;;;;;24.15;12.52;;;;;;;;;;5034623;28;20024;-65
2021/05/17 02:37:20;;;;;;;24.27;11.90;;;;;;;;;;5033332;28;20120;-64
2021/05/17 02:39:46;;;;;;;24.98;12.70;;;;;;;;;;5033646;28;20504;-63
2021/05/17 02:42:16;;;;;;;24.77;14.25;;;;;;;;;;5034332;28;20057;-64
2021/05/17 02:44:42;;;;;;;23.70;12.57;;;;;;;;;;5016544;28;20037;-64
2021/05/17 02:47:09;;;;;;;25.80;13.30;;;;;;;;;;5033022;28;20030;-64
2021/05/17 02:49:35;;;;;;;26.23;13.73;;;;;;;;;;5033560;28;20022;-65
2021/05/17 02:52:02;;;;;;;25.70;13.45;;;;;;;;;;5034583;28;20099;-65
2021/05/17 02:54:32;;;;;;;25.48;14.23;;;;;;;;;;5033997;28;20083;-64
2021/05/17 02:56:58;;;;;;;26.25;13.45;;;;;;;;;;5034078;28;20037;-65
2021/05/17 02:59:42;;;;;;;25.50;14.52;;;;;;;;;;5033456;28;20504;-63
2021/05/17 03:02:08;;;;;;;27.50;14.52;;;;;;;;;;5033995;28;20389;-63
2021/05/17 03:04:40;;;;;;;28.73;14.32;;;;;;;;;;5032448;28;20486;-63
2021/05/17 03:07:12;;;;;;;26.88;14.48;;;;;;;;;;5033824;28;20028;-65
2021/05/17 03:09:39;;;;;;;25.13;14.30;;;;;;;;;;5033281;28;20025;-64
2021/05/17 03:12:07;;;;;;;27.05;14.85;;;;;;;;;;5032683;28;20024;-64
2021/05/17 03:14:34;;;;;;;26.05;14.95;;;;;;;;;;5033702;28;20429;-61
2021/05/17 03:17:01;;;;;;;24.52;12.82;;;;;;;;;;5032436;28;20025;-63
2021/05/17 03:19:28;;;;;;;28.90;14.77;;;;;;;;;;5032765;28;20049;-63
2021/05/17 03:21:59;;;;;;;27.77;14.32;;;;;;;;;;5033499;28;20069;-63
2021/05/17 03:24:25;;;;;;;27.85;15.40;;;;;;;;;;5033217;28;20034;-64
2021/05/17 03:26:53;;;;;;;28.40;15.05;;;;;;;;;;5033202;28;20029;-60
2021/05/17 03:29:19;;;;;;;29.42;14.75;;;;;;;;;;5031554;28;20029;-65
2021/05/17 03:31:45;;;;;;;30.17;15.52;;;;;;;;;;5032360;28;20436;-65
2021/05/17 03:34:11;;;;;;;28.17;15.57;;;;;;;;;;5032599;28;20096;-65
2021/05/17 03:36:40;;;;;;;26.60;14.10;;;;;;;;;;5033057;28;20465;-65
2021/05/17 03:39:06;;;;;;;28.15;15.55;;;;;;;;;;5031172;28;20481;-64
2021/05/17 03:41:32;;;;;;;26.38;14.70;;;;;;;;;;5032895;28;20037;-65
2021/05/17 03:43:58;;;;;;;28.83;14.70;;;;;;;;;;5032785;28;20037;-65
2021/05/17 03:46:24;;;;;;;27.98;15.43;;;;;;;;;;5032843;28;20111;-64
2021/05/17 03:48:50;;;;;;;30.20;16.65;;;;;;;;;;5032157;28;20026;-65
2021/05/17 03:51:16;;;;;;;28.10;17.30;;;;;;;;;;5031607;28;20023;-65
2021/05/17 03:53:42;;;;;;;30.23;16.45;;;;;;;;;;5031581;28;20025;-64
2021/05/17 03:56:08;;;;;;;26.67;15.50;;;;;;;;;;5031614;28;20025;-64
2021/05/17 03:58:34;;;;;;;27.30;15.90;;;;;;;;;;5032579;28;20029;-62
2021/05/17 04:01:00;;;;;;;30.90;16.55;;;;;;;;;;5031949;28;20027;-63
2021/05/17 04:03:26;;;;;;;27.23;14.68;;;;;;;;;;5032571;28;20093;-61
2021/05/17 04:13:56;;;;;;;25.85;13.55;;;;;;;;;;5032479;28;20040;-64
2021/05/17 04:16:22;;;;;;;27.05;13.65;;;;;;;;;;5032236;28;20075;-64
2021/05/17 04:18:49;;;;;;;25.52;13.60;;;;;;;;;;5031677;28;20030;-65
2021/05/17 04:21:15;;;;;;;28.95;15.55;;;;;;;;;;5032175;28;20029;-64
2021/05/17 04:23:41;;;;;;;26.58;15.02;;;;;;;;;;5031856;28;20057;-65
2021/05/17 04:26:07;;;;;;;25.98;14.27;;;;;;;;;;5032062;28;20037;-65
2021/05/17 04:28:34;;;;;;;25.98;14.05;;;;;;;;;;5032087;28;20068;-65
2021/05/17 04:31:00;;;;;;;27.35;13.57;;;;;;;;;;5030184;28;20037;-64
2021/05/17 04:33:26;;;;;;;25.17;12.75;;;;;;;;;;5030554;28;20029;-64
2021/05/17 04:35:52;;;;;;;22.90;11.93;;;;;;;;;;5031466;28;20029;-64
2021/05/17 04:38:18;;;;;;;21.92;11.88;;;;;;;;;;5031539;28;20133;-58
2021/05/17 04:40:46;;;;;;;23.90;12.32;;;;;;;;;;5029467;28;20030;-64
2021/05/17 04:43:12;;;;;;;21.80;10.60;;;;;;;;;;5031334;28;20033;-69
2021/05/17 04:45:38;;;;;;;25.10;13.43;;;;;;;;;;5029336;28;20037;-64
2021/05/17 04:48:05;;;;;;;20.50;9.93;;;;;;;;;;5030308;28;20033;-65
2021/05/17 04:50:31;;;;;;;22.02;9.80;;;;;;;;;;5031103;28;20049;-63
2021/05/17 04:52:57;;;;;;;20.38;9.50;;;;;;;;;;5031054;28;20540;-64
2021/05/17 04:55:23;;;;;;;19.83;8.23;;;;;;;;;;5031866;28;20033;-64
2021/05/17 04:57:49;;;;;;;20.58;9.45;;;;;;;;;;5032209;28;20100;-65
2021/05/17 05:00:15;;;;;;;19.02;8.40;;;;;;;;;;5031361;28;20502;-64
2021/05/17 05:02:41;;;;;;;20.48;8.90;;;;;;;;;;5030527;28;20481;-65
2021/05/17 05:05:08;;;;;;;19.08;8.73;;;;;;;;;;5031657;28;20032;-64
2021/05/17 05:07:34;;;;;;;21.75;9.30;;;;;;;;;;5030279;28;20406;-64
2021/05/17 05:10:00;;;;;;;19.77;8.88;;;;;;;;;;5029665;28;20036;-63
2021/05/17 05:12:26;;;;;;;19.70;9.43;;;;;;;;;;5031656;28;20048;-63
2021/05/17 05:14:52;;;;;;;18.25;7.95;;;;;;;;;;5031366;28;20030;-63
2021/05/17 05:17:18;;;;;;;22.95;11.02;;;;;;;;;;5032040;28;20466;-65
2021/05/17 05:19:44;;;;;;;17.33;7.97;;;;;;;;;;5030848;28;20021;-64
2021/05/17 05:22:10;;;;;;;19.08;7.80;;;;;;;;;;5031485;28;20032;-64
2021/05/17 05:24:36;;;;;;;16.83;7.22;;;;;;;;;;5029897;28;20034;-65
2021/05/17 05:34:44;;;;;;;17.00;7.32;;;;;;;;;;5031401;28;20025;-60
2021/05/17 05:37:10;;;;;;;17.02;6.97;;;;;;;;;;5031442;28;20505;-65
2021/05/17 05:39:36;;;;;;;17.90;7.18;;;;;;;;;;5030907;28;20022;-64
2021/05/17 05:42:02;;;;;;;16.67;6.57;;;;;;;;;;5031389;28;20032;-64
2021/05/17 05:44:28;;;;;;;17.25;7.35;;;;;;;;;;5031333;28;20017;-62
2021/05/17 05:46:54;;;;;;;16.17;6.40;;;;;;;;;;5029636;28;20032;-64
2021/05/17 05:49:23;;;;;;;16.17;5.93;;;;;;;;;;5030541;28;20022;-64
2021/05/17 05:51:49;;;;;;;18.70;6.75;;;;;;;;;;5031435;28;20072;-63
2021/05/17 05:54:16;;;;;;;15.63;5.72;;;;;;;;;;5029869;28;20091;-63
2021/05/17 05:56:42;;;;;;;16.27;6.22;;;;;;;;;;5031098;28;20022;-66
2021/05/17 05:59:08;;;;;;;17.58;6.57;;;;;;;;;;5034320;28;20049;-65
2021/05/17 06:01:34;;;;;;;17.90;6.88;;;;;;;;;;5034767;28;20113;-63
2021/05/17 06:04:00;;;;;;;17.50;6.22;;;;;;;;;;5033399;28;20197;-64
2021/05/17 06:06:26;;;;;;;18.50;6.78;;;;;;;;;;5034750;28;20029;-65
2021/05/17 06:08:52;;;;;;;16.58;6.00;;;;;;;;;;5034812;28;20052;-63
2021/05/17 06:11:18;;;;;;;15.40;6.30;;;;;;;;;;5034952;28;20026;-64
2021/05/17 06:13:46;;;;;;;17.75;6.72;;;;;;;;;;5034575;28;20025;-59
2021/05/17 06:16:12;;;;;;;17.15;6.38;;;;;;;;;;5034299;28;20021;-64
2021/05/17 06:18:38;;;;;;;15.90;5.93;;;17.50;99.90;;;;;;5034400;28;20037;-63
2021/05/17 06:21:05;;;;;;;15.77;6.95;;;11.70;99.90;;;;;;5034694;28;20029;-64
2021/05/17 06:23:31;;;;;;;16.35;7.03;;;11.50;99.90;;;;;;5033601;28;20026;-64
2021/05/17 06:25:57;;;;;;;15.43;6.47;;;11.50;99.90;;;;;;5034520;28;20033;-64
2021/05/17 06:28:26;;;;;;;17.10;6.30;;;11.50;99.90;;;;;;5033352;28;20030;-65
2021/05/17 06:30:56;;;;;;;17.80;6.57;;;11.50;99.90;;;;;;5028635;28;20576;-64
2021/05/17 06:33:22;;;;;;;16.40;6.38;;;11.60;99.90;;;;;;5034426;28;20032;-64
2021/05/17 06:35:54;;;;;;;15.95;5.63;;;;;;;;;;5034128;28;20021;-64
2021/05/17 06:38:20;;;;;;;19.95;5.90;;;;;;;;;;5026964;28;20426;-63
2021/05/17 06:40:47;;;;;;;17.70;6.70;;;;;;;;;;5012003;28;20030;-63
2021/05/17 06:43:13;;;;;;;16.83;6.60;;;11.70;99.90;;;;;;5014531;28;20435;-64
2021/05/17 06:45:42;;;;;;;15.57;5.68;;;12.00;99.90;;;;;;5014527;28;20405;-64
2021/05/17 06:48:09;;;;;;;16.45;6.22;;;;;;;;;;5031351;28;20034;-64
2021/05/17 06:50:35;;;;;;;15.80;6.30;;;;;;;;;;5032338;28;20025;-64
2021/05/17 06:53:02;;;;;;;16.75;6.45;;;;;;;;;;5033006;28;20097;-64
2021/05/17 06:55:40;;;;;;;15.68;6.35;;;;;;;;;;5033910;28;20025;-65
2021/05/17 06:58:18;;;;;;;17.30;7.18;;;;;;;;;;5034078;28;20409;-64
2021/05/17 07:00:44;;;;;;;16.87;7.00;;;;;;;;;;5031922;28;20033;-65
2021/05/17 07:03:10;;;;;;;17.45;7.63;;;;;;;;;;5033193;28;20434;-63
2021/05/17 07:05:41;;;;;;;18.08;7.78;;;;;;;;;;5013562;28;20069;-64
2021/05/17 07:13:20;;;;;;;18.23;8.50;;;;;;;;;;5014030;28;20441;-62
2021/05/17 07:15:46;;;;;;;18.67;7.60;;;;;;;;;;5013760;28;20498;-64
2021/05/17 07:18:13;;;;;;;18.58;7.82;;;;;;;;;;5013499;28;20096;-63
2021/05/17 07:25:56;;;;;;;;;;;;;;;;;;5047474;22;20068;-61
2021/05/17 07:28:22;;;;;;;16.70;6.88;;;;;;;;;;5031600;28;20367;-64
2021/05/17 07:30:49;;;;;;;16.52;7.10;;;;;;;;;;5031061;28;20408;-64
2021/05/17 07:33:18;;;;;;;16.48;6.72;;;;;;;;;;5031478;28;20496;-63
2021/05/17 07:35:44;;;;;;;17.83;8.20;;;;;;;;;;5031173;28;20022;-63
2021/05/17 07:38:10;;;;;;;16.73;6.68;;;;;;;;;;5031305;28;20482;-64
2021/05/17 07:40:42;;;;;;;18.58;7.15;;;;;;;;;;5028410;28;20161;-64
2021/05/17 07:43:08;;;;;;;16.33;6.80;;;;;;;;;;5029409;28;20036;-65
2021/05/17 07:45:40;;;;;;;17.10;6.93;;;;;;;;;;5030812;28;20022;-63
2021/05/17 07:48:06;;;;;;;18.98;7.43;;;;;;;;;;5031070;28;20033;-64
2021/05/17 07:50:32;;;;;;;22.83;9.70;;;;;;;;;;5030512;28;20101;-63
2021/05/17 07:52:58;;;;;;;17.17;7.85;;;;;;;;;;5031261;28;20049;-62
2021/05/17 07:55:24;;;;;;;18.33;8.77;;;;;;;;;;5031357;28;20040;-64
2021/05/17 07:57:50;;;;;;;19.35;8.45;;;;;;;;;;5031089;28;20079;-63
2021/05/17 08:00:16;;;;;;;18.98;7.80;;;;;;;;;;5030060;28;20435;-63
2021/05/17 08:02:42;;;;;;;19.73;8.77;;;;;;;;;;5029084;28;20535;-61
2021/05/17 08:05:09;;;;;;;17.52;8.20;;;;;;;;;;5031094;28;20057;-60
2021/05/17 08:07:38;;;;;;;16.75;7.78;;;;;;;;;;5031452;28;20053;-63
2021/05/17 08:10:05;;;;;;;21.55;8.77;;;;;;;;;;5029997;28;20387;-63
2021/05/17 08:12:31;;;;;;;22.20;10.18;;;;;;;;;;5031443;28;20029;-63
2021/05/17 08:14:58;;;;;;;19.38;7.82;;;;;;;;;;5031546;28;20056;-64
2021/05/17 08:17:24;;;;;;;19.23;8.13;;;;;;;;;;5030858;28;20022;-62
2021/05/17 08:19:50;;;;;;;19.85;8.80;;;;;;;;;;5030185;28;20029;-63
2021/05/17 08:22:16;;;;;;;18.27;7.70;;;;;;;;;;5031015;28;20036;-63
2021/05/17 08:24:42;;;;;;;19.52;8.63;;;;;;;;;;5029331;28;20059;-62
2021/05/17 08:27:08;;;;;;;19.48;8.70;;;;;;;;;;5030011;28;20030;-62
2021/05/17 08:29:36;;;;;;;16.58;8.02;;;;;;;;;;5029988;28;20029;-59
2021/05/17 08:32:03;;;;;;;17.40;7.78;;;;;;;;;;5030633;28;20025;-61
2021/05/17 08:34:29;;;;;;;20.90;9.77;;;;;;;;;;5030653;28;20036;-61
2021/05/17 08:36:56;;;;;;;19.23;9.63;;;;;;;;;;5030235;28;20090;-60
2021/05/17 08:39:22;;;;;;;19.35;10.48;;;;;;;;;;5029689;28;20386;-61
2021/05/17 08:41:48;;;;;;;23.00;11.07;;;;;;;;;;5028770;28;20028;-60
2021/05/17 08:44:14;;;;;;;17.95;8.00;;;;;;;;;;5030262;28;20055;-59
2021/05/17 08:46:46;;;;;;;16.63;7.85;;;;;;;;;;5030124;28;20021;-61
2021/05/17 08:49:13;;;;;;;17.90;8.60;;;;;;;;;;5029540;28;20030;-58
2021/05/17 08:51:39;;;;;;;18.75;8.63;;;;;;;;;;5030308;28;20125;-61
2021/05/17 08:54:06;;;;;;;18.73;8.80;;;;;;;;;;5029899;28;20421;-62
2021/05/17 08:56:33;;;;;;;18.38;8.95;;;;;;;;;;5029953;28;20026;-60
2021/05/17 08:59:04;;;;;;;16.90;8.30;;;;;;;;;;5029344;28;20029;-60
2021/05/17 09:01:30;;;;;;;17.08;8.20;;;;;;;;;;5030179;28;20024;-62
2021/05/17 09:04:03;;;;;;;16.70;7.95;;;;;;;;;;5029548;28;20022;-60
2021/05/17 09:06:37;;;;;;;16.20;8.45;;;;;;;;;;5030069;28;20441;-61
2021/05/17 09:09:06;;;;;;;18.90;8.68;;;;;;;;;;5032528;28;20049;-61
2021/05/17 09:11:33;;;;;;;17.58;8.45;;;;;;;;;;5035115;28;20108;-61
2021/05/17 09:14:09;;;;;;;18.55;8.23;;;;;;;;;;5036813;28;20517;-60
2021/05/17 09:16:51;;;;;;;17.88;8.82;;;;;;;;;;5036354;28;20034;-61
2021/05/17 09:19:19;;;;;;;19.63;8.70;;;;;;;;;;5035674;28;20037;-61
2021/05/17 09:21:58;;;;;;;17.65;9.27;;;;;;;;;;5037611;28;20029;-61
2021/05/17 09:24:37;;;;;;;20.20;9.93;;;;;;;;;;5039062;28;20080;-61
2021/05/17 09:27:03;;;;;;;18.00;9.45;;;;;;;;;;5028479;28;20046;-61
2021/05/17 09:29:29;;;;;;;18.13;9.23;;;;;;;;;;5016632;28;20057;-59
2021/05/17 09:31:55;;;;;;;18.27;8.68;;;;;;;;;;5025093;28;20017;-58
2021/05/17 09:34:34;;;;;;;18.38;9.48;;;;;;;;;;5040899;28;20018;-61
2021/05/17 09:37:08;;;;;;;18.50;8.77;;;;;;;;;;5040159;28;20022;-61
2021/05/17 09:39:36;;;;;;;17.17;8.15;;;;;;;;;;5042272;28;20056;-60
2021/05/17 09:42:03;;;;;;;16.15;7.63;;;;;;;;;;5043184;28;20049;-60
2021/05/17 09:44:30;;;;;;;17.25;7.80;;;;;;;;;;5043106;28;20029;-60
2021/05/17 09:47:12;;;;;;;15.07;7.38;;;;;;;;;;5043896;28;20393;-61
2021/05/17 09:49:49;;;;;;;17.88;7.72;;;;;;;;;;5041992;28;20013;-61
2021/05/17 09:52:25;;;;;;;16.30;7.30;;;;;;;;;;5043690;28;20014;-60
2021/05/17 09:54:52;;;;;;;16.55;6.60;;;;;;;;;;5041751;28;20420;-61
2021/05/17 09:57:31;;;;;;;17.75;5.95;;;;;;;;;;5040522;28;20029;-61
2021/05/17 09:59:57;;;;;;;;;;;;;;;;;;5034178;28;20295;-59
2021/05/17 10:02:29;;;;;;;14.25;5.55;;;;;;;;;;5029759;28;19952;-59
2021/05/17 10:04:56;;;;;;;18.48;7.03;;;;;;;;;;5033021;28;20060;-59
2021/05/17 10:07:22;;;;;;;17.25;5.90;;;;;;;;;;5032909;28;20486;-59
2021/05/17 10:09:48;;;;;;;14.68;5.80;;;;;;;;;;5032391;28;20029;-58
2021/05/17 10:12:14;;;;;;;14.63;6.00;;;;;;;;;;5032020;28;20056;-60
2021/05/17 10:14:40;;;;;;;13.50;5.38;;;;;;;;;;5032089;28;20064;-60
2021/05/17 10:17:06;;;;;;;12.82;5.28;;;;;;;;;;5032527;28;20629;-61
2021/05/17 10:19:32;;;;;;;14.60;5.65;;;;;;;;;;5032652;28;20064;-59
2021/05/17 10:21:59;;;;;;;14.80;5.68;;;;;;;;;;5032982;28;20033;-60
2021/05/17 10:24:25;;;;;;;14.75;6.00;;;;;;;;;;5032575;28;20025;-61
2021/05/17 10:26:53;;;;;;;13.40;5.93;;;;;;;;;;5031380;28;20532;-60
2021/05/17 10:29:29;;;;;;;14.65;5.35;;;;;;;;;;5014954;28;20370;-61
2021/05/17 10:31:55;;;;;;;15.65;5.50;;;;;;;;;;5031530;28;20440;-61
2021/05/17 10:34:21;;;;;;;15.40;5.30;;;;;;;;;;5031345;28;20064;-60
2021/05/17 10:36:50;;;;;;;12.50;4.70;;;;;;;;;;5032756;28;20037;-61
2021/05/17 10:39:17;;;;;;;11.93;4.78;;;;;;;;;;5032271;28;20033;-60
2021/05/17 10:42:00;;;;;;;14.40;4.82;;;;;;;;;;5031681;28;20029;-61
2021/05/17 10:46:52;;;;;;;10.50;4.15;;;;;;;;;;5032429;28;20033;-61
2021/05/17 10:49:18;;;;;;;10.07;4.70;;;;;;;;;;5030322;28;20542;-61
2021/05/17 10:51:44;;;;;;;10.93;4.35;;;;;;;;;;5031988;28;20164;-58
2021/05/17 10:54:27;;;;;;;15.68;4.65;;;;;;;;;;5030299;28;20466;-60
2021/05/17 11:02:11;;;;;;;14.63;5.20;;;;;;;;;;5032967;28;20303;-61
2021/05/17 11:04:41;;;;;;;10.25;4.30;;;;;;;;;;5031451;28;20068;-60
2021/05/17 11:07:09;;;;;;;8.27;3.70;;;;;;;;;;5032743;28;20025;-59
2021/05/17 11:09:47;;;;;;;12.90;3.58;;;;;;;;;;5031679;28;20017;-55
2021/05/17 11:12:19;;;;;;;9.55;3.70;;;;;;;;;;5032146;28;20025;-60
2021/05/17 11:15:05;;;;;;;10.80;4.00;;;;;;;;;;5032115;28;20477;-59
2021/05/17 11:17:31;;;;;;;9.32;4.00;;;;;;;;;;5031894;28;20030;-60
2021/05/17 11:19:57;;;;;;;9.02;4.05;;;;;;;;;;5030964;28;20393;-60
2021/05/17 11:22:52;;;;;;;8.80;3.90;;;;;;;;;;5032140;28;20029;-60
2021/05/17 11:25:18;;;;;;;8.32;4.03;;;;;;;;;;5017509;28;20110;-60
2021/05/17 11:27:48;;;;;;;14.15;5.25;;;;;;;;;;5030322;28;20471;-60
2021/05/17 11:30:34;;;;;;;11.90;4.60;;;;;;;;;;5030772;28;20124;-60
2021/05/17 11:33:13;;;;;;;10.52;4.50;;;;;;;;;;5021024;28;20048;-60
2021/05/17 11:35:59;;;;;;;10.77;4.68;;;;;;;;;;5031386;28;20040;-61
2021/05/17 11:38:25;;;;;;;12.07;5.10;;;;;;;;;;5031371;28;20030;-60
2021/05/17 11:40:51;;;;;;;11.82;4.93;;;;;;;;;;5030471;28;20079;-59
2021/05/17 11:43:18;;;;;;;12.18;5.28;;;;;;;;;;5031466;28;20371;-61
2021/05/17 11:45:45;;;;;;;13.10;5.28;;;;;;;;;;5031292;28;20371;-60
2021/05/17 11:48:11;;;;;;;14.05;6.30;;;;;;;;;;5029953;28;20028;-60
2021/05/17 11:50:37;;;;;;;14.55;6.00;;;;;;;;;;5030974;28;20017;-60
2021/05/17 11:53:03;;;;;;;13.93;5.93;;;;;;;;;;5030015;28;20478;-61
2021/05/17 11:55:29;;;;;;;12.88;6.07;;;;;;;;;;5028888;28;20421;-58
2021/05/17 11:57:56;;;;;;;14.70;6.55;;;;;;;;;;5031198;28;20069;-60
2021/05/17 12:00:26;;;;;;;13.88;6.40;;;;;;;;;;5030381;28;20112;-60
2021/05/17 12:02:56;;;;;;;15.05;6.75;;;;;;;;;;5031039;28;20028;-61
2021/05/17 12:05:23;;;;;;;13.48;6.38;;;;;;;;;;5030909;28;20446;-62
2021/05/17 12:07:51;;;;;;;14.93;6.30;;;;;;;;;;5030698;28;20060;-60
2021/05/17 12:10:18;;;;;;;15.05;6.40;;;;;;;;;;5029996;28;20304;-61
2021/05/17 12:12:44;;;;;;;14.18;6.00;;;;;;;;;;5030608;28;20480;-59
2021/05/17 12:15:11;;;;;;;16.33;7.53;;;;;;;;;;5030618;28;20026;-60
2021/05/17 12:17:38;;;;;;;13.98;5.85;;;;;;;;;;5030759;28;20060;-61
2021/05/17 12:20:05;;;;;;;15.57;5.90;;;;;;;;;;5029975;28;20033;-62
2021/05/17 12:22:37;;;;;;;19.00;5.90;;;;;;;;;;5030839;28;20394;-63
2021/05/17 12:25:16;;;;;;;19.05;14.00;;;;;;;;;;5030524;28;20276;-62
2021/05/17 12:27:50;;;;;;;16.50;12.73;;;;;;;;;;5029647;28;20060;-61
2021/05/17 12:30:18;;;;;;;15.55;13.00;;;;;;;;;;5029986;28;20065;-57
2021/05/17 12:32:44;;;;;;;16.98;12.07;;;;;;;;;;5030553;28;20065;-60
2021/05/17 12:35:22;;;;;;;17.05;12.35;;;;;;;;;;5030493;28;20025;-61
2021/05/17 12:37:51;;;;;;;16.45;10.40;;;;;;;;;;5029490;28;20052;-61
2021/05/17 12:40:17;;;;;;;15.20;9.40;;;;;;;;;;5029958;28;20025;-59
2021/05/17 12:42:43;;;;;;;15.00;9.00;;;;;;;;;;5030296;28;20033;-59
2021/05/17 12:45:12;;;;;;;15.45;8.13;;;;;;;;;;4677002;28;9999624;-60
2021/05/17 12:47:47;;;;;;;15.45;7.70;;;;;;;;;;5027457;28;20033;-59
2021/05/17 12:50:20;;;;;;;14.70;7.95;;;;;;;;;;5025365;28;20549;-59
2021/05/17 12:52:47;;;;;;;15.10;8.68;;;;;;;;;;5017721;28;20033;-59
2021/05/17 12:55:21;;;;;;;15.77;9.30;;;;;;;;;;5013180;28;20749;-57
2021/05/17 12:57:49;;;;;;;15.57;8.25;;;;;;;;;;5017119;28;20045;-60
2021/05/17 13:00:16;;;;;;;16.63;8.48;;;;;;;;;;5015154;28;20040;-60
2021/05/17 13:02:42;;;;;;;17.23;9.02;;;;;;;;;;5015949;28;20029;-58
2021/05/17 13:05:08;;;;;;;17.40;9.23;;;;;;;;;;5015386;28;20419;-60
2021/05/17 13:07:54;;;;;;;16.83;8.90;;;;;;;;;;5014877;28;20084;-56
2021/05/17 13:10:20;;;;;;;18.77;9.20;;;;;;;;;;5016918;28;20022;-59
2021/05/17 13:12:50;;;;;;;16.88;9.35;;;;;;;;;;5017429;28;20037;-60
2021/05/17 13:15:19;;;;;;;16.83;9.27;;;;;;;;;;5019204;28;20487;-59
2021/05/17 13:17:56;;;;;;;16.70;9.60;;;;;;;;;;5016701;28;20021;-57
2021/05/17 13:20:28;;;;;;;17.80;9.65;;;;;;;;;;5014488;28;20083;-59
2021/05/17 13:30:01;;;;;;;16.85;9.02;;;;;;;;;;4999735;28;20083;-61
2021/05/17 13:31:45;;;;;;;18.45;9.85;;;;;;;;;;5025131;28;20091;-51
2021/05/17 13:34:14;;;;;;;16.67;9.73;;;;;;;;;;5028218;28;20025;-60
2021/05/17 13:36:40;;;;;;;18.27;9.73;;;;;;;;;;5027971;28;20018;-59
2021/05/17 13:39:06;;;;;;;17.08;9.50;;;;;;;;;;5026099;28;20021;-53
2021/05/17 13:41:32;;;;;;;17.17;9.55;;;;;;;;;;5027887;28;20028;-59
2021/05/17 13:43:58;;;;;;;17.52;9.20;;;;;;;;;;5026004;28;20108;-61
2021/05/17 13:46:30;;;;;;;18.15;9.25;;;;;;;;;;5027690;28;20554;-55
2021/05/17 13:49:40;;;;;;;16.83;9.90;;;;;;;;;;5027284;28;20853;-58
2021/05/17 13:52:08;;;;;;;18.00;9.75;;;;;;;;;;4966692;28;20472;-54
2021/05/17 13:54:34;;;;;;;21.45;9.73;;;;;;;;;;5027253;28;20156;-52
2021/05/17 13:57:01;;;;;;;16.73;9.38;;;;;;;;;;5026689;28;20442;-52
2021/05/17 13:59:27;;;;;;;17.10;10.27;;;;;;;;;;5026907;28;20035;-53
2021/05/17 14:01:53;;;;;;;16.17;9.50;;;;;;;;;;5026350;28;20032;-53
2021/05/17 14:04:19;;;;;;;19.15;8.98;;;;;;;;;;5025947;28;20025;-56
2021/05/17 14:06:48;;;;;;;17.35;8.88;;;;;;;;;;5026237;28;20025;-52
2021/05/17 14:09:18;;;;;;;18.27;9.30;;;;;;;;;;5025995;28;20486;-54
2021/05/17 14:11:44;;;;;;;18.20;9.70;;;;;;;;;;5025799;28;20029;-53
2021/05/17 14:14:13;;;;;;;18.15;9.55;;;;;;;;;;5019650;28;20029;-52
2021/05/17 14:16:39;;;;;;;17.40;9.43;;;;;;;;;;5027185;28;20497;-57
2021/05/17 14:19:09;;;;;;;15.65;8.55;;;;;;;;;;5028610;28;20025;-55
2021/05/17 14:21:35;;;;;;;18.70;10.45;;;;;;;;;;5029626;28;20021;-58
2021/05/17 14:24:01;;;;;;;18.77;8.88;;;;;;;;;;5031314;28;20056;-54
2021/05/17 14:26:27;;;;;;;16.05;9.20;;;;;;;;;;5031032;28;20057;-53
2021/05/17 14:28:53;;;;;;;16.60;9.80;;;;;;;;;;5029994;28;20830;-56
2021/05/17 14:31:19;;;;;;;18.23;9.38;;;;;;;;;;5031095;28;20443;-54
2021/05/17 14:33:49;;;;;;;18.02;9.45;;;;;;;;;;5031157;28;20052;-58
2021/05/17 14:36:15;;;;;;;15.73;8.43;;;;;;;;;;5029558;28;20022;-52
2021/05/17 14:38:41;;;;;;;15.65;8.40;;;;;;;;;;5028539;28;20066;-56
2021/05/17 14:41:07;;;;;;;15.63;8.85;;;;;;;;;;5030805;28;20070;-57
2021/05/17 14:43:34;;;;;;;16.35;8.85;;;;;;;;;;5028642;28;20044;-56
2021/05/17 14:46:00;;;;;;;17.00;9.38;;;;;;;;;;5030679;28;20025;-49
2021/05/17 14:48:27;;;;;;;17.33;9.82;;;;;;;;;;5029110;28;20567;-57
2021/05/17 14:50:53;;;;;;;17.95;10.20;;;;;;;;;;5028897;28;20029;-54
2021/05/17 14:53:19;;;;;;;16.75;10.27;;;;;;;;;;5030426;28;20068;-56
2021/05/17 14:55:46;;;;;;;16.90;9.77;;;;;;;;;;5028741;28;20029;-57
2021/05/17 14:58:12;;;;;;;17.17;10.00;;;;;;;;;;5029811;28;20025;-54
2021/05/17 15:00:39;;;;;;;17.65;10.70;;;;;;;;;;5029689;28;20022;-54
2021/05/17 15:03:05;;;;;;;19.27;9.48;;;;;;;;;;5030189;28;20038;-55
2021/05/17 15:05:31;;;;;;;16.15;9.98;;;;;;;;;;5028656;28;20322;-58
2021/05/17 15:07:57;;;;;;;18.17;9.95;;;;;;;;;;5029887;28;20365;-59